sensor_id;sensor_type;location;lat;lon;timestamp;temperature;humidity
610;DHT22;292;48.800;9.216;2023-05-09T00:01:30;17.90;82.60
610;DHT22;292;48.800;9.216;2023-05-09T00:03:58;17.80;82.50
610;DHT22;292;48.800;9.216;2023-05-09T00:06:26;17.80;82.40
610;DHT22;292;48.800;9.216;2023-05-09T00:08:53;17.80;82.10
610;DHT22;292;48.800;9.216;2023-05-09T00:11:21;17.80;82.00
610;DHT22;292;48.800;9.216;2023-05-09T00:13:50;17.80;81.70
610;DHT22;292;48.800;9.216;2023-05-09T00:16:21;17.80;81.40
610;DHT22;292;48.800;9.216;2023-05-09T00:18:51;17.80;81.00
610;DHT22;292;48.800;9.216;2023-05-09T00:21:18;17.80;80.70
610;DHT22;292;48.800;9.216;2023-05-09T00:23:46;17.70;80.70
610;DHT22;292;48.800;9.216;2023-05-09T00:26:14;17.70;80.90
610;DHT22;292;48.800;9.216;2023-05-09T00:28:41;17.70;80.60
610;DHT22;292;48.800;9.216;2023-05-09T00:31:09;17.70;80.60
610;DHT22;292;48.800;9.216;2023-05-09T00:33:38;17.70;80.40
610;DHT22;292;48.800;9.216;2023-05-09T00:36:07;17.60;80.60
610;DHT22;292;48.800;9.216;2023-05-09T00:38:34;17.60;80.40
610;DHT22;292;48.800;9.216;2023-05-09T00:41:01;17.60;80.60
610;DHT22;292;48.800;9.216;2023-05-09T00:43:29;17.60;80.60
610;DHT22;292;48.800;9.216;2023-05-09T00:45:56;17.60;80.40
610;DHT22;292;48.800;9.216;2023-05-09T00:48:23;17.60;80.30
610;DHT22;292;48.800;9.216;2023-05-09T00:50:52;17.50;80.30
610;DHT22;292;48.800;9.216;2023-05-09T00:53:20;17.60;80.40
610;DHT22;292;48.800;9.216;2023-05-09T00:55:47;17.50;80.40
610;DHT22;292;48.800;9.216;2023-05-09T00:58:17;17.50;80.40
610;DHT22;292;48.800;9.216;2023-05-09T01:00:46;17.50;80.30
610;DHT22;292;48.800;9.216;2023-05-09T01:03:15;17.50;80.30
610;DHT22;292;48.800;9.216;2023-05-09T01:05:56;17.50;80.10
610;DHT22;292;48.800;9.216;2023-05-09T01:08:38;17.50;80.10
610;DHT22;292;48.800;9.216;2023-05-09T01:11:10;17.50;80.10
610;DHT22;292;48.800;9.216;2023-05-09T01:13:48;17.40;80.10
610;DHT22;292;48.800;9.216;2023-05-09T01:16:22;17.40;80.30
610;DHT22;292;48.800;9.216;2023-05-09T01:18:57;17.40;80.40
610;DHT22;292;48.800;9.216;2023-05-09T01:21:43;17.40;80.40
610;DHT22;292;48.800;9.216;2023-05-09T01:24:30;17.40;80.60
610;DHT22;292;48.800;9.216;2023-05-09T01:27:17;17.40;80.60
610;DHT22;292;48.800;9.216;2023-05-09T01:29:56;17.40;80.70
610;DHT22;292;48.800;9.216;2023-05-09T01:32:40;17.30;80.70
610;DHT22;292;48.800;9.216;2023-05-09T01:35:33;17.30;80.90
610;DHT22;292;48.800;9.216;2023-05-09T01:38:31;17.30;80.90
610;DHT22;292;48.800;9.216;2023-05-09T01:41:35;17.20;80.90
610;DHT22;292;48.800;9.216;2023-05-09T01:44:05;17.20;80.90
610;DHT22;292;48.800;9.216;2023-05-09T01:46:36;17.20;81.00
610;DHT22;292;48.800;9.216;2023-05-09T01:49:04;17.10;81.30
610;DHT22;292;48.800;9.216;2023-05-09T01:51:34;17.10;81.30
610;DHT22;292;48.800;9.216;2023-05-09T01:54:03;17.00;81.40
610;DHT22;292;48.800;9.216;2023-05-09T01:56:31;17.00;81.60
610;DHT22;292;48.800;9.216;2023-05-09T01:59:01;17.00;81.60
610;DHT22;292;48.800;9.216;2023-05-09T02:01:30;17.00;81.60
610;DHT22;292;48.800;9.216;2023-05-09T02:04:01;16.90;81.70
610;DHT22;292;48.800;9.216;2023-05-09T02:06:30;16.90;81.90
610;DHT22;292;48.800;9.216;2023-05-09T02:08:58;16.80;81.90
610;DHT22;292;48.800;9.216;2023-05-09T02:11:26;16.80;82.00
610;DHT22;292;48.800;9.216;2023-05-09T02:13:54;16.80;82.10
610;DHT22;292;48.800;9.216;2023-05-09T02:16:21;16.80;82.10
610;DHT22;292;48.800;9.216;2023-05-09T02:18:48;16.80;82.10
610;DHT22;292;48.800;9.216;2023-05-09T02:21:20;16.80;82.10
610;DHT22;292;48.800;9.216;2023-05-09T02:23:51;16.70;82.10
610;DHT22;292;48.800;9.216;2023-05-09T02:26:21;16.70;82.20
610;DHT22;292;48.800;9.216;2023-05-09T02:28:51;16.60;82.20
610;DHT22;292;48.800;9.216;2023-05-09T02:31:24;16.60;82.40
610;DHT22;292;48.800;9.216;2023-05-09T02:37:20;16.50;82.50
610;DHT22;292;48.800;9.216;2023-05-09T02:39:51;16.50;82.50
610;DHT22;292;48.800;9.216;2023-05-09T02:42:33;16.40;82.50
610;DHT22;292;48.800;9.216;2023-05-09T02:45:17;16.40;82.60
610;DHT22;292;48.800;9.216;2023-05-09T02:47:47;16.40;82.80
610;DHT22;292;48.800;9.216;2023-05-09T02:50:14;16.30;82.80
610;DHT22;292;48.800;9.216;2023-05-09T02:52:43;16.30;82.90
610;DHT22;292;48.800;9.216;2023-05-09T02:55:12;16.30;83.10
610;DHT22;292;48.800;9.216;2023-05-09T02:57:39;16.30;83.10
610;DHT22;292;48.800;9.216;2023-05-09T03:00:08;16.30;83.20
610;DHT22;292;48.800;9.216;2023-05-09T03:02:38;16.30;83.20
610;DHT22;292;48.800;9.216;2023-05-09T03:05:06;16.30;83.20
610;DHT22;292;48.800;9.216;2023-05-09T03:07:34;16.30;83.20
610;DHT22;292;48.800;9.216;2023-05-09T03:10:04;16.30;83.20
610;DHT22;292;48.800;9.216;2023-05-09T03:12:31;16.20;83.20
610;DHT22;292;48.800;9.216;2023-05-09T03:14:59;16.20;83.20
610;DHT22;292;48.800;9.216;2023-05-09T03:17:26;16.20;83.10
610;DHT22;292;48.800;9.216;2023-05-09T03:19:56;16.20;83.10
610;DHT22;292;48.800;9.216;2023-05-09T03:22:24;16.20;83.10
610;DHT22;292;48.800;9.216;2023-05-09T03:24:51;16.10;83.10
610;DHT22;292;48.800;9.216;2023-05-09T03:27:20;16.10;83.20
610;DHT22;292;48.800;9.216;2023-05-09T03:29:47;16.10;83.20
610;DHT22;292;48.800;9.216;2023-05-09T03:32:15;16.10;83.10
610;DHT22;292;48.800;9.216;2023-05-09T03:34:42;16.10;83.20
610;DHT22;292;48.800;9.216;2023-05-09T03:37:10;16.10;83.10
610;DHT22;292;48.800;9.216;2023-05-09T03:39:37;16.10;83.20
610;DHT22;292;48.800;9.216;2023-05-09T03:42:05;16.10;83.10
610;DHT22;292;48.800;9.216;2023-05-09T03:44:34;16.10;83.20
610;DHT22;292;48.800;9.216;2023-05-09T03:47:02;16.10;83.20
610;DHT22;292;48.800;9.216;2023-05-09T03:49:29;16.10;83.10
610;DHT22;292;48.800;9.216;2023-05-09T03:51:58;16.20;83.10
610;DHT22;292;48.800;9.216;2023-05-09T03:54:27;16.20;83.10
610;DHT22;292;48.800;9.216;2023-05-09T03:56:55;16.20;83.10
610;DHT22;292;48.800;9.216;2023-05-09T03:59:25;16.20;83.10
610;DHT22;292;48.800;9.216;2023-05-09T04:01:55;16.20;83.10
610;DHT22;292;48.800;9.216;2023-05-09T04:04:22;16.20;83.10
610;DHT22;292;48.800;9.216;2023-05-09T04:06:51;16.20;83.10
610;DHT22;292;48.800;9.216;2023-05-09T04:09:18;16.30;83.10
610;DHT22;292;48.800;9.216;2023-05-09T04:11:45;16.30;82.90
610;DHT22;292;48.800;9.216;2023-05-09T04:14:15;16.30;82.80
610;DHT22;292;48.800;9.216;2023-05-09T04:16:43;16.30;82.80
610;DHT22;292;48.800;9.216;2023-05-09T04:19:11;16.30;82.80
610;DHT22;292;48.800;9.216;2023-05-09T04:21:39;16.30;82.60
610;DHT22;292;48.800;9.216;2023-05-09T04:24:07;16.30;82.60
610;DHT22;292;48.800;9.216;2023-05-09T04:26:35;16.20;82.80
610;DHT22;292;48.800;9.216;2023-05-09T04:29:03;16.20;82.90
610;DHT22;292;48.800;9.216;2023-05-09T04:31:30;16.20;83.10
610;DHT22;292;48.800;9.216;2023-05-09T04:33:57;16.20;83.10
610;DHT22;292;48.800;9.216;2023-05-09T04:36:26;16.20;83.10
610;DHT22;292;48.800;9.216;2023-05-09T04:38:53;16.20;83.20
610;DHT22;292;48.800;9.216;2023-05-09T04:41:21;16.20;83.20
610;DHT22;292;48.800;9.216;2023-05-09T04:43:53;16.20;83.10
610;DHT22;292;48.800;9.216;2023-05-09T04:46:25;16.20;83.10
610;DHT22;292;48.800;9.216;2023-05-09T04:48:52;16.20;82.90
610;DHT22;292;48.800;9.216;2023-05-09T04:51:20;16.20;83.10
610;DHT22;292;48.800;9.216;2023-05-09T04:53:48;16.20;82.90
610;DHT22;292;48.800;9.216;2023-05-09T04:56:19;16.20;82.90
610;DHT22;292;48.800;9.216;2023-05-09T04:58:48;16.30;82.90
610;DHT22;292;48.800;9.216;2023-05-09T05:01:15;16.30;82.90
610;DHT22;292;48.800;9.216;2023-05-09T05:03:44;16.30;82.90
610;DHT22;292;48.800;9.216;2023-05-09T05:06:12;16.30;83.10
610;DHT22;292;48.800;9.216;2023-05-09T05:08:39;16.30;83.10
610;DHT22;292;48.800;9.216;2023-05-09T05:11:11;16.40;83.10
610;DHT22;292;48.800;9.216;2023-05-09T05:13:39;16.40;82.90
610;DHT22;292;48.800;9.216;2023-05-09T05:16:06;16.40;82.80
610;DHT22;292;48.800;9.216;2023-05-09T05:18:33;16.40;82.60
610;DHT22;292;48.800;9.216;2023-05-09T05:21:01;16.40;82.50
610;DHT22;292;48.800;9.216;2023-05-09T05:23:29;16.30;82.50
610;DHT22;292;48.800;9.216;2023-05-09T05:25:57;16.30;82.50
610;DHT22;292;48.800;9.216;2023-05-09T05:28:25;16.30;82.50
610;DHT22;292;48.800;9.216;2023-05-09T05:30:53;16.30;82.50
610;DHT22;292;48.800;9.216;2023-05-09T05:33:21;16.30;82.60
610;DHT22;292;48.800;9.216;2023-05-09T05:35:48;16.30;82.60
610;DHT22;292;48.800;9.216;2023-05-09T05:38:15;16.40;82.80
610;DHT22;292;48.800;9.216;2023-05-09T05:40:43;16.40;82.60
610;DHT22;292;48.800;9.216;2023-05-09T05:43:14;16.50;82.60
610;DHT22;292;48.800;9.216;2023-05-09T05:45:45;16.50;82.40
610;DHT22;292;48.800;9.216;2023-05-09T05:48:14;16.60;82.20
610;DHT22;292;48.800;9.216;2023-05-09T05:50:47;16.60;82.10
610;DHT22;292;48.800;9.216;2023-05-09T05:53:15;16.60;81.90
610;DHT22;292;48.800;9.216;2023-05-09T05:55:57;16.70;81.90
610;DHT22;292;48.800;9.216;2023-05-09T05:58:38;16.70;81.40
610;DHT22;292;48.800;9.216;2023-05-09T06:01:26;16.70;81.20
610;DHT22;292;48.800;9.216;2023-05-09T06:04:08;16.80;80.70
610;DHT22;292;48.800;9.216;2023-05-09T06:06:58;16.70;80.60
610;DHT22;292;48.800;9.216;2023-05-09T06:09:29;16.70;80.40
610;DHT22;292;48.800;9.216;2023-05-09T06:12:01;16.70;80.40
610;DHT22;292;48.800;9.216;2023-05-09T06:14:31;16.80;80.40
610;DHT22;292;48.800;9.216;2023-05-09T06:17:08;16.80;80.40
610;DHT22;292;48.800;9.216;2023-05-09T06:19:42;16.80;80.40
610;DHT22;292;48.800;9.216;2023-05-09T06:22:51;16.90;80.10
610;DHT22;292;48.800;9.216;2023-05-09T06:28:05;16.90;79.90
610;DHT22;292;48.800;9.216;2023-05-09T06:28:49;17.00;79.60
610;DHT22;292;48.800;9.216;2023-05-09T06:31:22;17.10;79.10
610;DHT22;292;48.800;9.216;2023-05-09T06:33:51;17.10;78.80
610;DHT22;292;48.800;9.216;2023-05-09T06:36:19;17.20;78.60
610;DHT22;292;48.800;9.216;2023-05-09T06:38:51;17.20;78.30
610;DHT22;292;48.800;9.216;2023-05-09T06:41:19;17.30;78.30
610;DHT22;292;48.800;9.216;2023-05-09T06:43:46;17.30;78.30
610;DHT22;292;48.800;9.216;2023-05-09T06:46:13;17.40;78.30
610;DHT22;292;48.800;9.216;2023-05-09T06:48:41;17.50;78.10
610;DHT22;292;48.800;9.216;2023-05-09T06:51:10;17.50;77.70
610;DHT22;292;48.800;9.216;2023-05-09T06:53:37;17.60;77.50
610;DHT22;292;48.800;9.216;2023-05-09T06:56:05;17.60;77.70
610;DHT22;292;48.800;9.216;2023-05-09T06:58:32;17.60;77.40
610;DHT22;292;48.800;9.216;2023-05-09T07:01:00;17.70;77.30
610;DHT22;292;48.800;9.216;2023-05-09T07:03:29;17.70;77.30
610;DHT22;292;48.800;9.216;2023-05-09T07:05:56;17.80;77.10
610;DHT22;292;48.800;9.216;2023-05-09T07:08:26;17.90;77.00
610;DHT22;292;48.800;9.216;2023-05-09T07:10:55;18.00;76.80
610;DHT22;292;48.800;9.216;2023-05-09T07:13:23;18.00;76.50
610;DHT22;292;48.800;9.216;2023-05-09T07:15:52;18.10;76.10
610;DHT22;292;48.800;9.216;2023-05-09T07:18:19;18.20;76.00
610;DHT22;292;48.800;9.216;2023-05-09T07:20:46;18.30;75.80
610;DHT22;292;48.800;9.216;2023-05-09T07:23:14;18.40;75.40
610;DHT22;292;48.800;9.216;2023-05-09T07:25:43;18.40;75.10
610;DHT22;292;48.800;9.216;2023-05-09T07:28:11;18.50;75.00
610;DHT22;292;48.800;9.216;2023-05-09T07:30:38;18.60;74.50
610;DHT22;292;48.800;9.216;2023-05-09T07:33:06;18.60;74.40
610;DHT22;292;48.800;9.216;2023-05-09T07:35:34;18.70;74.20
610;DHT22;292;48.800;9.216;2023-05-09T07:38:01;18.70;74.10
610;DHT22;292;48.800;9.216;2023-05-09T07:40:30;18.80;73.40
610;DHT22;292;48.800;9.216;2023-05-09T07:43:03;18.90;73.10
610;DHT22;292;48.800;9.216;2023-05-09T07:45:36;19.00;72.40
610;DHT22;292;48.800;9.216;2023-05-09T07:48:04;19.10;71.90
610;DHT22;292;48.800;9.216;2023-05-09T07:50:32;19.20;71.30
610;DHT22;292;48.800;9.216;2023-05-09T07:52:59;19.20;71.20
610;DHT22;292;48.800;9.216;2023-05-09T07:55:27;19.30;70.60
610;DHT22;292;48.800;9.216;2023-05-09T07:57:54;19.40;70.00
610;DHT22;292;48.800;9.216;2023-05-09T08:00:26;19.40;69.90
610;DHT22;292;48.800;9.216;2023-05-09T08:02:56;19.50;69.20
610;DHT22;292;48.800;9.216;2023-05-09T08:05:23;19.60;68.70
610;DHT22;292;48.800;9.216;2023-05-09T08:07:51;19.60;68.30
610;DHT22;292;48.800;9.216;2023-05-09T08:10:19;19.70;67.70
610;DHT22;292;48.800;9.216;2023-05-09T08:12:48;19.70;67.30
610;DHT22;292;48.800;9.216;2023-05-09T08:15:15;19.80;67.20
610;DHT22;292;48.800;9.216;2023-05-09T08:17:44;19.90;67.20
610;DHT22;292;48.800;9.216;2023-05-09T08:20:14;19.90;67.00
610;DHT22;292;48.800;9.216;2023-05-09T08:22:43;20.00;66.40
610;DHT22;292;48.800;9.216;2023-05-09T08:25:10;20.00;66.20
610;DHT22;292;48.800;9.216;2023-05-09T08:27:39;20.00;66.00
610;DHT22;292;48.800;9.216;2023-05-09T08:30:08;20.10;65.70
610;DHT22;292;48.800;9.216;2023-05-09T08:32:38;20.10;65.60
610;DHT22;292;48.800;9.216;2023-05-09T08:35:26;20.10;65.30
610;DHT22;292;48.800;9.216;2023-05-09T08:38:02;20.20;65.10
610;DHT22;292;48.800;9.216;2023-05-09T08:41:04;20.30;64.90
610;DHT22;292;48.800;9.216;2023-05-09T08:43:53;20.30;64.60
610;DHT22;292;48.800;9.216;2023-05-09T08:46:29;20.40;64.40
610;DHT22;292;48.800;9.216;2023-05-09T08:48:57;20.40;64.00
610;DHT22;292;48.800;9.216;2023-05-09T08:51:28;20.50;64.10
610;DHT22;292;48.800;9.216;2023-05-09T08:53:58;20.50;64.10
610;DHT22;292;48.800;9.216;2023-05-09T08:56:28;20.50;63.80
610;DHT22;292;48.800;9.216;2023-05-09T08:58:56;20.60;63.80
610;DHT22;292;48.800;9.216;2023-05-09T09:01:27;20.60;63.80
610;DHT22;292;48.800;9.216;2023-05-09T09:03:56;20.70;63.60
610;DHT22;292;48.800;9.216;2023-05-09T09:06:24;20.70;63.40
610;DHT22;292;48.800;9.216;2023-05-09T09:08:54;20.70;63.40
610;DHT22;292;48.800;9.216;2023-05-09T09:11:22;20.70;63.40
610;DHT22;292;48.800;9.216;2023-05-09T09:13:51;20.70;63.40
610;DHT22;292;48.800;9.216;2023-05-09T09:16:21;20.70;63.40
610;DHT22;292;48.800;9.216;2023-05-09T09:18:51;20.70;63.00
610;DHT22;292;48.800;9.216;2023-05-09T09:21:21;20.80;62.80
610;DHT22;292;48.800;9.216;2023-05-09T09:23:52;20.90;62.70
610;DHT22;292;48.800;9.216;2023-05-09T09:26:22;21.00;62.50
610;DHT22;292;48.800;9.216;2023-05-09T09:28:54;21.10;62.30
610;DHT22;292;48.800;9.216;2023-05-09T09:31:30;21.10;62.10
610;DHT22;292;48.800;9.216;2023-05-09T09:34:02;21.10;61.80
610;DHT22;292;48.800;9.216;2023-05-09T09:36:31;21.20;61.80
610;DHT22;292;48.800;9.216;2023-05-09T09:39:03;21.20;61.70
610;DHT22;292;48.800;9.216;2023-05-09T09:41:35;21.20;61.70
610;DHT22;292;48.800;9.216;2023-05-09T09:44:06;21.20;61.80
610;DHT22;292;48.800;9.216;2023-05-09T09:46:46;21.30;61.70
610;DHT22;292;48.800;9.216;2023-05-09T09:49:16;21.30;61.50
610;DHT22;292;48.800;9.216;2023-05-09T09:51:43;21.30;61.80
610;DHT22;292;48.800;9.216;2023-05-09T09:54:14;21.30;62.00
610;DHT22;292;48.800;9.216;2023-05-09T09:56:42;21.30;62.00
610;DHT22;292;48.800;9.216;2023-05-09T09:59:11;21.40;61.50
610;DHT22;292;48.800;9.216;2023-05-09T10:01:56;21.40;61.50
610;DHT22;292;48.800;9.216;2023-05-09T10:04:30;21.40;61.70
610;DHT22;292;48.800;9.216;2023-05-09T10:06:58;21.50;61.70
610;DHT22;292;48.800;9.216;2023-05-09T10:09:41;21.50;61.70
610;DHT22;292;48.800;9.216;2023-05-09T10:12:26;21.50;61.70
610;DHT22;292;48.800;9.216;2023-05-09T10:15:10;21.60;61.70
610;DHT22;292;48.800;9.216;2023-05-09T10:22:49;21.80;61.80
610;DHT22;292;48.800;9.216;2023-05-09T10:24:33;21.90;61.20
610;DHT22;292;48.800;9.216;2023-05-09T10:27:44;21.90;61.00
610;DHT22;292;48.800;9.216;2023-05-09T10:30:38;22.00;61.10
610;DHT22;292;48.800;9.216;2023-05-09T10:33:33;22.10;60.50
610;DHT22;292;48.800;9.216;2023-05-09T10:36:03;22.10;60.10
610;DHT22;292;48.800;9.216;2023-05-09T10:38:31;22.20;60.00
610;DHT22;292;48.800;9.216;2023-05-09T10:40:58;22.20;59.80
610;DHT22;292;48.800;9.216;2023-05-09T10:43:28;22.20;59.60
610;DHT22;292;48.800;9.216;2023-05-09T10:45:58;22.30;58.80
610;DHT22;292;48.800;9.216;2023-05-09T10:48:26;22.30;58.50
610;DHT22;292;48.800;9.216;2023-05-09T10:50:55;22.30;58.40
610;DHT22;292;48.800;9.216;2023-05-09T10:53:39;22.40;58.10
610;DHT22;292;48.800;9.216;2023-05-09T10:56:09;22.40;57.60
610;DHT22;292;48.800;9.216;2023-05-09T10:58:53;22.30;58.00
610;DHT22;292;48.800;9.216;2023-05-09T11:01:34;22.30;58.20
610;DHT22;292;48.800;9.216;2023-05-09T11:04:11;22.40;58.20
610;DHT22;292;48.800;9.216;2023-05-09T11:06:43;22.40;58.50
610;DHT22;292;48.800;9.216;2023-05-09T11:09:30;22.50;58.60
610;DHT22;292;48.800;9.216;2023-05-09T11:12:32;22.50;58.40
610;DHT22;292;48.800;9.216;2023-05-09T11:15:06;22.60;57.80
610;DHT22;292;48.800;9.216;2023-05-09T11:17:38;22.70;57.70
610;DHT22;292;48.800;9.216;2023-05-09T11:20:07;22.80;57.80
610;DHT22;292;48.800;9.216;2023-05-09T11:22:39;22.90;57.40
610;DHT22;292;48.800;9.216;2023-05-09T11:25:08;22.90;57.60
610;DHT22;292;48.800;9.216;2023-05-09T11:27:41;22.90;57.30
610;DHT22;292;48.800;9.216;2023-05-09T11:30:19;23.00;57.30
610;DHT22;292;48.800;9.216;2023-05-09T11:32:49;23.00;57.20
610;DHT22;292;48.800;9.216;2023-05-09T11:35:18;23.00;57.30
610;DHT22;292;48.800;9.216;2023-05-09T11:37:47;23.00;57.30
610;DHT22;292;48.800;9.216;2023-05-09T11:40:16;23.10;56.90
610;DHT22;292;48.800;9.216;2023-05-09T11:42:44;23.10;56.80
610;DHT22;292;48.800;9.216;2023-05-09T11:45:13;23.10;56.60
610;DHT22;292;48.800;9.216;2023-05-09T11:47:42;23.20;56.60
610;DHT22;292;48.800;9.216;2023-05-09T11:50:20;23.30;56.50
610;DHT22;292;48.800;9.216;2023-05-09T11:52:54;23.50;56.00
610;DHT22;292;48.800;9.216;2023-05-09T11:55:21;23.60;55.40
610;DHT22;292;48.800;9.216;2023-05-09T11:57:51;23.60;55.40
610;DHT22;292;48.800;9.216;2023-05-09T12:00:20;23.60;55.40
610;DHT22;292;48.800;9.216;2023-05-09T12:02:50;23.70;55.30
610;DHT22;292;48.800;9.216;2023-05-09T12:05:18;23.70;55.00
610;DHT22;292;48.800;9.216;2023-05-09T12:07:46;23.70;54.90
610;DHT22;292;48.800;9.216;2023-05-09T12:10:15;23.80;55.20
610;DHT22;292;48.800;9.216;2023-05-09T12:12:43;23.80;54.90
610;DHT22;292;48.800;9.216;2023-05-09T12:15:12;23.90;54.60
610;DHT22;292;48.800;9.216;2023-05-09T12:17:42;23.90;54.20
610;DHT22;292;48.800;9.216;2023-05-09T12:20:12;24.00;54.20
610;DHT22;292;48.800;9.216;2023-05-09T12:22:42;24.00;54.10
610;DHT22;292;48.800;9.216;2023-05-09T12:25:11;24.10;54.20
610;DHT22;292;48.800;9.216;2023-05-09T12:27:39;24.10;53.70
610;DHT22;292;48.800;9.216;2023-05-09T12:30:08;24.10;53.60
610;DHT22;292;48.800;9.216;2023-05-09T12:32:40;24.10;53.60
610;DHT22;292;48.800;9.216;2023-05-09T12:35:09;24.00;53.70
610;DHT22;292;48.800;9.216;2023-05-09T12:37:54;24.00;54.00
610;DHT22;292;48.800;9.216;2023-05-09T12:40:22;24.10;53.70
610;DHT22;292;48.800;9.216;2023-05-09T12:42:49;24.10;53.70
610;DHT22;292;48.800;9.216;2023-05-09T12:45:19;24.10;54.00
610;DHT22;292;48.800;9.216;2023-05-09T12:47:50;24.10;54.10
610;DHT22;292;48.800;9.216;2023-05-09T12:50:18;24.00;54.20
610;DHT22;292;48.800;9.216;2023-05-09T12:52:52;24.00;54.00
610;DHT22;292;48.800;9.216;2023-05-09T12:55:24;24.00;53.80
610;DHT22;292;48.800;9.216;2023-05-09T12:58:06;24.00;53.70
610;DHT22;292;48.800;9.216;2023-05-09T13:00:47;24.00;53.70
610;DHT22;292;48.800;9.216;2023-05-09T13:03:21;24.00;53.40
610;DHT22;292;48.800;9.216;2023-05-09T13:05:59;24.00;53.00
610;DHT22;292;48.800;9.216;2023-05-09T13:08:29;24.00;52.90
610;DHT22;292;48.800;9.216;2023-05-09T13:11:02;24.10;52.80
610;DHT22;292;48.800;9.216;2023-05-09T13:13:30;24.10;52.80
610;DHT22;292;48.800;9.216;2023-05-09T13:15:58;24.10;52.80
610;DHT22;292;48.800;9.216;2023-05-09T13:18:25;24.10;52.50
610;DHT22;292;48.800;9.216;2023-05-09T13:20:52;24.10;52.20
610;DHT22;292;48.800;9.216;2023-05-09T13:23:20;24.20;51.80
610;DHT22;292;48.800;9.216;2023-05-09T13:25:49;24.20;51.60
610;DHT22;292;48.800;9.216;2023-05-09T13:28:19;24.20;51.30
610;DHT22;292;48.800;9.216;2023-05-09T13:30:47;24.10;51.40
610;DHT22;292;48.800;9.216;2023-05-09T13:33:15;24.10;51.00
610;DHT22;292;48.800;9.216;2023-05-09T13:35:43;24.10;50.60
610;DHT22;292;48.800;9.216;2023-05-09T13:38:10;24.10;50.60
610;DHT22;292;48.800;9.216;2023-05-09T13:40:38;24.10;50.40
610;DHT22;292;48.800;9.216;2023-05-09T13:43:07;24.10;50.10
610;DHT22;292;48.800;9.216;2023-05-09T13:45:34;24.10;49.80
610;DHT22;292;48.800;9.216;2023-05-09T13:48:02;24.00;50.00
610;DHT22;292;48.800;9.216;2023-05-09T13:50:29;24.00;50.00
610;DHT22;292;48.800;9.216;2023-05-09T13:52:57;23.90;50.20
610;DHT22;292;48.800;9.216;2023-05-09T13:55:25;23.80;50.40
610;DHT22;292;48.800;9.216;2023-05-09T13:57:55;23.80;50.50
610;DHT22;292;48.800;9.216;2023-05-09T14:00:27;23.80;50.50
610;DHT22;292;48.800;9.216;2023-05-09T14:02:56;23.80;50.60
610;DHT22;292;48.800;9.216;2023-05-09T14:05:25;23.70;50.80
610;DHT22;292;48.800;9.216;2023-05-09T14:07:59;23.70;50.80
610;DHT22;292;48.800;9.216;2023-05-09T14:10:28;23.60;50.90
610;DHT22;292;48.800;9.216;2023-05-09T14:12:55;23.60;51.00
610;DHT22;292;48.800;9.216;2023-05-09T14:15:24;23.50;51.20
610;DHT22;292;48.800;9.216;2023-05-09T14:17:51;23.50;51.20
610;DHT22;292;48.800;9.216;2023-05-09T14:20:24;23.50;50.80
610;DHT22;292;48.800;9.216;2023-05-09T14:22:51;23.50;50.80
610;DHT22;292;48.800;9.216;2023-05-09T14:25:24;23.50;50.80
610;DHT22;292;48.800;9.216;2023-05-09T14:27:55;23.50;50.90
610;DHT22;292;48.800;9.216;2023-05-09T14:30:27;23.50;51.20
610;DHT22;292;48.800;9.216;2023-05-09T14:32:56;23.40;51.30
610;DHT22;292;48.800;9.216;2023-05-09T14:35:23;23.40;51.40
610;DHT22;292;48.800;9.216;2023-05-09T14:37:50;23.40;51.60
610;DHT22;292;48.800;9.216;2023-05-09T14:40:19;23.40;51.80
610;DHT22;292;48.800;9.216;2023-05-09T14:42:47;23.40;52.10
610;DHT22;292;48.800;9.216;2023-05-09T14:45:14;23.40;52.40
610;DHT22;292;48.800;9.216;2023-05-09T14:47:43;23.30;52.80
610;DHT22;292;48.800;9.216;2023-05-09T14:50:11;23.20;53.30
610;DHT22;292;48.800;9.216;2023-05-09T14:52:41;23.20;53.60
610;DHT22;292;48.800;9.216;2023-05-09T14:55:09;23.10;53.60
610;DHT22;292;48.800;9.216;2023-05-09T14:57:38;23.00;54.10
610;DHT22;292;48.800;9.216;2023-05-09T15:00:08;22.90;54.80
610;DHT22;292;48.800;9.216;2023-05-09T15:02:38;22.80;55.30
610;DHT22;292;48.800;9.216;2023-05-09T15:05:09;22.70;55.20
610;DHT22;292;48.800;9.216;2023-05-09T15:07:38;22.60;55.00
610;DHT22;292;48.800;9.216;2023-05-09T15:10:06;22.60;54.80
610;DHT22;292;48.800;9.216;2023-05-09T15:12:37;22.50;54.50
610;DHT22;292;48.800;9.216;2023-05-09T15:15:23;22.50;54.80
610;DHT22;292;48.800;9.216;2023-05-09T15:17:50;22.50;55.20
610;DHT22;292;48.800;9.216;2023-05-09T15:20:23;22.50;54.90
610;DHT22;292;48.800;9.216;2023-05-09T15:22:52;22.50;54.40
610;DHT22;292;48.800;9.216;2023-05-09T15:25:19;22.50;54.40
610;DHT22;292;48.800;9.216;2023-05-09T15:27:49;22.40;54.00
610;DHT22;292;48.800;9.216;2023-05-09T15:30:19;22.40;53.70
610;DHT22;292;48.800;9.216;2023-05-09T15:32:47;22.40;54.00
610;DHT22;292;48.800;9.216;2023-05-09T15:35:15;22.40;54.20
610;DHT22;292;48.800;9.216;2023-05-09T15:37:45;22.40;54.60
610;DHT22;292;48.800;9.216;2023-05-09T15:40:15;22.40;55.20
610;DHT22;292;48.800;9.216;2023-05-09T15:42:42;22.40;55.60
610;DHT22;292;48.800;9.216;2023-05-09T15:45:15;22.40;56.00
610;DHT22;292;48.800;9.216;2023-05-09T15:47:46;22.40;56.10
610;DHT22;292;48.800;9.216;2023-05-09T15:50:13;22.40;56.00
610;DHT22;292;48.800;9.216;2023-05-09T15:52:41;22.40;55.80
610;DHT22;292;48.800;9.216;2023-05-09T15:55:12;22.40;55.40
610;DHT22;292;48.800;9.216;2023-05-09T15:57:40;22.40;55.60
610;DHT22;292;48.800;9.216;2023-05-09T16:00:11;22.50;55.60
610;DHT22;292;48.800;9.216;2023-05-09T16:02:40;22.40;55.40
610;DHT22;292;48.800;9.216;2023-05-09T16:05:09;22.50;55.80
610;DHT22;292;48.800;9.216;2023-05-09T16:07:38;22.50;56.00
610;DHT22;292;48.800;9.216;2023-05-09T16:10:07;22.50;56.10
610;DHT22;292;48.800;9.216;2023-05-09T16:12:36;22.50;56.80
610;DHT22;292;48.800;9.216;2023-05-09T16:15:04;22.50;57.60
610;DHT22;292;48.800;9.216;2023-05-09T16:17:31;22.40;57.80
610;DHT22;292;48.800;9.216;2023-05-09T16:19:59;22.40;58.20
610;DHT22;292;48.800;9.216;2023-05-09T16:22:27;22.40;58.40
610;DHT22;292;48.800;9.216;2023-05-09T16:24:54;22.40;58.50
610;DHT22;292;48.800;9.216;2023-05-09T16:27:21;22.40;58.60
610;DHT22;292;48.800;9.216;2023-05-09T16:29:49;22.40;58.60
610;DHT22;292;48.800;9.216;2023-05-09T16:32:19;22.40;58.80
610;DHT22;292;48.800;9.216;2023-05-09T16:34:46;22.30;59.40
610;DHT22;292;48.800;9.216;2023-05-09T16:37:15;22.30;60.10
610;DHT22;292;48.800;9.216;2023-05-09T16:39:47;22.20;60.70
610;DHT22;292;48.800;9.216;2023-05-09T16:43:42;22.20;61.20
610;DHT22;292;48.800;9.216;2023-05-09T16:45:41;22.20;61.80
610;DHT22;292;48.800;9.216;2023-05-09T16:48:25;22.20;62.00
610;DHT22;292;48.800;9.216;2023-05-09T16:50:54;22.20;62.10
610;DHT22;292;48.800;9.216;2023-05-09T16:53:26;22.10;62.40
610;DHT22;292;48.800;9.216;2023-05-09T16:55:54;22.10;62.10
610;DHT22;292;48.800;9.216;2023-05-09T16:58:21;22.10;62.00
610;DHT22;292;48.800;9.216;2023-05-09T17:00:51;22.10;61.80
610;DHT22;292;48.800;9.216;2023-05-09T17:03:20;22.00;61.20
610;DHT22;292;48.800;9.216;2023-05-09T17:05:47;22.00;61.10
610;DHT22;292;48.800;9.216;2023-05-09T17:08:14;22.00;61.00